Time;durP1;ratioP1;P1;durP2;ratioP2;P2;SDS_P1;SDS_P2;PMS_P1;PMS_P2;Temp;Humidity;BMP_temperature;BMP_pressure;BME280_temperature;BME280_humidity;BME280_pressure;Samples;Min_cycle;Max_cycle;Signal;HPM_P1;HPM_P2
2022/04/17 00:00:12;;;;;;;9.83;4.83;;;;;;;;;;5103536;28;20493;-64
2022/04/17 00:02:38;;;;;;;10.03;5.17;;;;;;;;;;5094181;28;20490;-64
2022/04/17 00:05:05;;;;;;;9.07;5.40;;;;;;;;;;5102301;28;20096;-65
2022/04/17 00:07:31;;;;;;;8.77;5.43;;;;;;;;;;5101931;28;20040;-64
2022/04/17 00:09:58;;;;;;;12.23;5.10;;;;;;;;;;5091697;28;20497;-64
2022/04/17 00:12:24;;;;;;;8.33;5.13;;;;;;;;;;5090608;28;20043;-64
2022/04/17 00:14:50;;;;;;;7.60;4.60;;;;;;;;;;5100163;28;20048;-64
2022/04/17 00:17:17;;;;;;;10.63;4.97;;;;;;;;;;5106447;28;20603;-64
2022/04/17 00:19:43;;;;;;;10.50;5.03;;;;;;;;;;5106564;28;20032;-64
2022/04/17 00:22:08;;;;;;;9.30;4.83;;;;;;;;;;5098703;28;20055;-64
2022/04/17 00:24:35;;;;;;;9.03;5.17;;;;;;;;;;5090938;28;20043;-64
2022/04/17 00:27:01;;;;;;;8.90;5.27;;;;;;;;;;5091338;28;20546;-64
2022/04/17 00:29:28;;;;;;;8.37;4.97;;;;;;;;;;5110210;28;20803;-64
2022/04/17 00:31:56;;;;;;;9.40;5.80;;;;;;;;;;5110016;28;20046;-64
2022/04/17 00:34:22;;;;;;;12.47;6.20;;;;;;;;;;5090696;28;20044;-64
2022/04/17 00:36:48;;;;;;;9.90;5.10;;;;;;;;;;5090581;28;20425;-64
2022/04/17 00:39:14;;;;;;;12.17;5.73;;;;;;;;;;5090303;28;20131;-64
2022/04/17 00:41:41;;;;;;;9.43;5.53;;;;;;;;;;5098141;28;20054;-64
2022/04/17 00:44:15;;;;;;;8.87;5.87;;;;;;;;;;5089402;28;20044;-64
2022/04/17 00:46:41;;;;;;;10.73;5.00;;;;;;;;;;5095897;28;20119;-64
2022/04/17 00:49:07;;;;;;;11.00;5.30;;;;;;;;;;5109740;28;20478;-64
2022/04/17 00:51:34;;;;;;;7.83;5.43;;;;;;;;;;5103573;28;21393;-64
2022/04/17 00:54:01;;;;;;;11.90;6.40;;;;;;;;;;5097639;28;20039;-64
2022/04/17 00:56:27;;;;;;;9.17;6.07;;;;;;;;;;5098074;28;20097;-64
2022/04/17 00:58:53;;;;;;;10.00;5.07;;;;;;;;;;5104881;28;20523;-64
2022/04/17 01:01:19;;;;;;;9.93;5.87;;;;;;;;;;5103358;28;20835;-64
2022/04/17 01:03:45;;;;;;;10.70;5.63;;;;;;;;;;5089718;28;20051;-64
2022/04/17 01:06:11;;;;;;;9.47;5.43;;;;;;;;;;5106290;28;20520;-64
2022/04/17 01:08:41;;;;;;;9.17;5.27;;;;;;;;;;5098202;28;20114;-64
2022/04/17 01:11:11;;;;;;;9.03;5.47;;;;;;;;;;5098257;28;20083;-64
2022/04/17 01:13:42;;;;;;;9.60;5.53;;;;;;;;;;5089956;28;20066;-64
2022/04/17 01:16:08;;;;;;;8.40;5.50;;;;;;;;;;5093648;28;20043;-64
2022/04/17 01:18:56;;;;;;;13.73;6.20;;;;;;;;;;5098040;28;20402;-64
2022/04/17 01:21:23;;;;;;;11.57;5.70;;;;;;;;;;5097864;28;20572;-64
2022/04/17 01:29:18;;;;;;;8.70;5.50;;;;;;;;;;5089118;28;20101;-64
2022/04/17 01:31:45;;;;;;;9.97;5.70;;;;;;;;;;5097697;28;20040;-64
2022/04/17 01:34:13;;;;;;;9.63;6.20;;;;;;;;;;5088989;28;20059;-64
2022/04/17 01:36:39;;;;;;;10.20;5.67;;;;;;;;;;5089018;28;20522;-64
2022/04/17 01:39:05;;;;;;;8.97;5.23;;;;;;;;;;5094364;28;20502;-64
2022/04/17 01:41:31;;;;;;;9.77;5.73;;;;;;;;;;5097087;28;20047;-64
2022/04/17 01:43:57;;;;;;;10.40;5.87;;;;;;;;;;5100701;28;20050;-64
2022/04/17 01:46:24;;;;;;;11.97;5.57;;;;;;;;;;5096831;28;20122;-64
2022/04/17 01:48:50;;;;;;;12.50;5.77;;;;;;;;;;5089083;28;20052;-64
2022/04/17 01:51:16;;;;;;;10.70;6.50;;;;;;;;;;5088385;28;20444;-64
2022/04/17 01:53:42;;;;;;;12.03;6.43;;;;;;;;;;5071238;28;20101;-64
2022/04/17 01:56:08;;;;;;;8.23;5.50;;;;;;;;;;5088856;28;20051;-64
2022/04/17 01:58:34;;;;;;;9.67;5.87;;;;;;;;;;5089170;28;20039;-64
2022/04/17 02:01:00;;;;;;;13.23;6.67;;;;;;;;;;5101054;28;20040;-64
2022/04/17 02:03:27;;;;;;;10.00;6.27;;;;;;;;;;5101385;28;20115;-64
2022/04/17 02:05:53;;;;;;;9.93;6.50;;;;;;;;;;5108189;28;20047;-64
2022/04/17 02:08:19;;;;;;;11.20;6.23;;;;;;;;;;5108731;28;20032;-64
2022/04/17 02:10:45;;;;;;;9.83;5.83;;;;;;;;;;5108754;28;20046;-64
2022/04/17 02:13:11;;;;;;;11.80;6.23;;;;;;;;;;5096886;28;20040;-64
2022/04/17 02:15:37;;;;;;;10.80;6.73;;;;;;;;;;5088443;28;20032;-64
2022/04/17 02:18:03;;;;;;;11.20;6.07;;;;;;;;;;5088653;28;20127;-64
2022/04/17 02:20:29;;;;;;;12.17;6.00;;;;;;;;;;5088441;28;20086;-64
2022/04/17 02:22:55;;;;;;;10.00;5.97;;;;;;;;;;5106032;28;20093;-64
2022/04/17 02:25:21;;;;;;;11.33;6.13;;;;;;;;;;5088890;28;20497;-64
2022/04/17 02:27:47;;;;;;;11.27;6.13;;;;;;;;;;5091241;28;20122;-64
2022/04/17 02:30:13;;;;;;;10.47;6.40;;;;;;;;;;5100642;28;20154;-63
2022/04/17 02:32:39;;;;;;;10.17;5.90;;;;;;;;;;5100434;28;20126;-66
2022/04/17 02:35:06;;;;;;;10.77;6.73;;;;;;;;;;5088394;28;20058;-65
2022/04/17 02:37:32;;;;;;;13.03;6.00;;;;;;;;;;5095057;28;20653;-64
2022/04/17 02:39:58;;;;;;;11.03;5.50;;;;;;;;;;5097915;28;20051;-65
2022/04/17 02:42:24;;;;;;;11.27;6.23;;;;;;;;;;5087886;28;20055;-64
2022/04/17 02:44:50;;;;;;;11.17;6.33;;;;;;;;;;5088709;28;20036;-64
2022/04/17 02:50:01;;;;;;;9.63;6.70;;;;;;;;;;5092288;28;20063;-64
2022/04/17 02:52:27;;;;;;;9.73;5.63;;;;;;;;;;5099667;28;20556;-64
2022/04/17 02:54:56;;;;;;;10.87;6.03;;;;;;;;;;5103798;28;20735;-64
2022/04/17 02:57:22;;;;;;;14.30;6.90;;;;;;;;;;5077841;28;20036;-64
2022/04/17 02:59:48;;;;;;;11.70;6.07;;;;;;;;;;5088384;28;20036;-64
2022/04/17 03:07:44;;;;;;;10.43;6.33;;;;;;;;;;5097267;28;20421;-64
2022/04/17 03:10:10;;;;;;;11.90;7.10;;;;;;;;;;5092274;28;20052;-64
2022/04/17 03:12:36;;;;;;;10.80;6.07;;;;;;;;;;5095653;28;20568;-65
2022/04/17 03:15:03;;;;;;;15.40;6.97;;;;;;;;;;5103988;28;20036;-65
2022/04/17 03:17:29;;;;;;;10.70;6.97;;;;;;;;;;5111395;28;20046;-64
2022/04/17 03:19:55;;;;;;;12.60;6.73;;;;;;;;;;5111619;28;20039;-64
2022/04/17 03:22:22;;;;;;;11.13;6.80;;;;;;;;;;5108853;28;20435;-65
2022/04/17 03:24:48;;;;;;;12.00;7.40;;;;;;;;;;5091651;28;20047;-64
2022/04/17 03:27:14;;;;;;;11.23;7.10;;;;;;;;;;5091401;28;20506;-64
2022/04/17 03:29:40;;;;;;;12.33;7.30;;;;;;;;;;5091513;28;20101;-65
2022/04/17 03:32:06;;;;;;;12.00;6.70;;;;;;;;;;5091674;28;20127;-65
2022/04/17 03:34:32;;;;;;;10.27;6.43;;;;;;;;;;5091498;28;20666;-65
2022/04/17 03:36:58;;;;;;;11.03;7.13;;;;;;;;;;5095049;28;20048;-65
2022/04/17 03:39:24;;;;;;;11.83;7.10;;;;;;;;;;5091473;28;20044;-65
2022/04/17 03:41:51;;;;;;;14.43;7.03;;;;;;;;;;5091272;28;20048;-64
2022/04/17 03:44:17;;;;;;;12.93;6.83;;;;;;;;;;5093533;28;20040;-65
2022/04/17 03:46:44;;;;;;;12.10;6.73;;;;;;;;;;5091328;28;20448;-65
2022/04/17 03:49:10;;;;;;;14.30;7.33;;;;;;;;;;5097911;28;20044;-65
2022/04/17 03:51:36;;;;;;;11.67;7.27;;;;;;;;;;5094544;28;20711;-65
2022/04/17 03:54:02;;;;;;;10.00;6.70;;;;;;;;;;5099260;28;20080;-65
2022/04/17 03:56:28;;;;;;;12.23;8.27;;;;;;;;;;5105413;28;20046;-64
2022/04/17 03:58:54;;;;;;;10.53;6.93;;;;;;;;;;5110552;28;20039;-65
2022/04/17 04:01:21;;;;;;;11.60;7.20;;;;;;;;;;5098744;28;20418;-64
2022/04/17 04:03:47;;;;;;;15.50;7.93;;;;;;;;;;5080079;28;20282;-65
2022/04/17 04:06:13;;;;;;;12.37;7.90;;;;;;;;;;5100369;28;20055;-64
2022/04/17 04:08:40;;;;;;;12.40;7.97;;;;;;;;;;5105502;28;20040;-64
2022/04/17 04:11:06;;;;;;;14.93;8.23;;;;;;;;;;5109079;28;20040;-64
2022/04/17 04:13:32;;;;;;;14.40;7.50;;;;;;;;;;5103662;28;20430;-64
2022/04/17 04:15:58;;;;;;;13.60;8.23;;;;;;;;;;5109577;28;20044;-64
2022/04/17 04:18:24;;;;;;;13.93;8.27;;;;;;;;;;5105497;28;21073;-64
2022/04/17 04:20:50;;;;;;;15.80;7.90;;;;;;;;;;5098547;28;20851;-64
2022/04/17 04:23:19;;;;;;;14.40;8.73;;;;;;;;;;5090296;28;20352;-64
2022/04/17 04:25:45;;;;;;;13.47;8.60;;;;;;;;;;5091005;28;20036;-64
2022/04/17 04:30:56;;;;;;;15.63;8.37;;;;;;;;;;5090282;28;20048;-64
2022/04/17 04:33:22;;;;;;;12.23;8.03;;;;;;;;;;5098538;28;20044;-64
2022/04/17 04:35:48;;;;;;;11.17;6.97;;;;;;;;;;5090250;28;21166;-64
2022/04/17 04:38:14;;;;;;;13.00;8.27;;;;;;;;;;5099090;28;20321;-64
2022/04/17 04:40:40;;;;;;;15.23;7.67;;;;;;;;;;5099914;28;20705;-64
2022/04/17 04:43:06;;;;;;;11.77;7.53;;;;;;;;;;5096035;28;20297;-64
2022/04/17 04:49:29;;;;;;;12.53;7.63;;;;;;;;;;5090769;28;20337;-65
2022/04/17 04:51:03;;;;;;;20.37;9.03;;;;;;;;;;5093255;28;20296;-64
2022/04/17 04:53:29;;;;;;;13.60;8.57;;;;;;;;;;5094314;28;20289;-64
2022/04/17 04:55:55;;;;;;;14.83;7.97;;;;;;;;;;5080544;28;20484;-65
2022/04/17 04:58:21;;;;;;;14.00;8.03;;;;;;;;;;5089665;28;20282;-64
2022/04/17 05:00:47;;;;;;;15.33;10.07;;;;;;;;;;5089511;28;20050;-64
2022/04/17 05:03:13;;;;;;;15.13;8.23;;;;;;;;;;5089660;28;20788;-65
2022/04/17 05:05:39;;;;;;;13.33;8.57;;;;;;;;;;5094419;28;20296;-64
2022/04/17 05:08:05;;;;;;;13.57;8.47;;;;;;;;;;5105247;28;20297;-64
2022/04/17 05:10:31;;;;;;;13.80;9.10;;;;;;;;;;5102722;28;20324;-65
2022/04/17 05:12:57;;;;;;;13.13;8.53;;;;;;;;;;5092808;28;20071;-64
2022/04/17 05:15:23;;;;;;;14.40;8.83;;;;;;;;;;5088827;28;20335;-64
2022/04/17 05:17:49;;;;;;;17.40;8.93;;;;;;;;;;5089334;28;20290;-65
2022/04/17 05:20:15;;;;;;;15.23;8.47;;;;;;;;;;5079027;28;20513;-65
2022/04/17 05:22:43;;;;;;;15.20;8.03;;;;;;;;;;5089317;28;20044;-65
2022/04/17 05:25:10;;;;;;;14.93;8.67;;;;;;;;;;5071257;28;20791;-65
2022/04/17 05:27:36;;;;;;;16.27;8.90;;;;;;;;;;5105058;28;20302;-65
2022/04/17 05:30:02;;;;;;;15.77;8.60;;;;;;;;;;5089144;28;20082;-64
2022/04/17 05:32:28;;;;;;;13.00;8.30;;;;;;;;;;5089348;28;20050;-65
2022/04/17 05:34:54;;;;;;;17.50;8.03;;;;;;;;;;5088900;28;20359;-65
2022/04/17 05:37:20;;;;;;;15.23;8.57;;;;;;;;;;5092564;28;20290;-64
2022/04/17 05:39:46;;;;;;;14.00;8.13;;;;;;;;;;5100022;28;20054;-64
2022/04/17 05:42:13;;;;;;;14.33;8.30;;;;;;;;;;5108984;28;20107;-65
2022/04/17 05:44:39;;;;;;;12.77;8.23;;;;;;;;;;5108568;28;20417;-65
2022/04/17 05:47:06;;;;;;;13.57;8.37;;;;;;;;;;5096506;28;21452;-65
2022/04/17 05:49:32;;;;;;;11.00;7.53;;;;;;;;;;5088756;28;20093;-65
2022/04/17 05:51:58;;;;;;;11.03;7.13;;;;;;;;;;5089143;28;20063;-65
2022/04/17 05:54:25;;;;;;;14.33;7.87;;;;;;;;;;5095316;28;20047;-65
2022/04/17 05:56:51;;;;;;;15.87;7.33;;;;;;;;;;5105295;28;20076;-65
2022/04/17 05:59:17;;;;;;;13.43;7.43;;;;;;;;;;5102655;28;20031;-65
2022/04/17 06:01:43;;;;;;;10.60;7.67;;;;;;;;;;5097388;28;20073;-65
2022/04/17 06:04:09;;;;;;;13.13;7.00;;;;;;;;;;5088847;28;20043;-65
2022/04/17 06:06:35;;;;;;;10.47;6.53;;;;;;;;;;5088369;28;20036;-65
2022/04/17 06:09:02;;;;;;;11.77;7.33;;;;;;;;;;5088755;28;20047;-65
2022/04/17 06:11:28;;;;;;;11.47;7.13;;;;;;;;;;5073730;28;20058;-65
2022/04/17 06:13:55;;;;;;;10.73;6.63;;;;;;;;;;5078731;28;20135;-65
2022/04/17 06:16:21;;;;;;;10.17;6.43;;;;;;;;;;5088290;28;20108;-65
2022/04/17 06:18:47;;;;;;;13.27;7.43;;;;;;;;;;5105217;28;20564;-65
2022/04/17 06:21:13;;;;;;;11.80;6.43;;;;;;;;;;5088736;28;20135;-64
2022/04/17 06:23:40;;;;;;;12.13;6.30;;;;;;;;;;5091752;28;20044;-65
2022/04/17 06:26:08;;;;;;;11.57;6.97;;;;;;;;;;5089132;28;20044;-64
2022/04/17 06:28:34;;;;;;;12.10;6.27;;;;;;;;;;5099399;28;20047;-65
2022/04/17 06:31:00;;;;;;;11.07;6.77;;;;;;;;;;5098183;28;20036;-65
2022/04/17 06:33:26;;;;;;;10.50;6.40;;;;;;;;;;5095219;28;20743;-65
2022/04/17 06:35:52;;;;;;;9.17;6.40;;;;;;;;;;5098047;28;20042;-65
2022/04/17 06:38:18;;;;;;;10.40;6.73;;;;;;;;;;5105249;28;20051;-65
2022/04/17 06:40:44;;;;;;;12.23;7.43;;;;;;;;;;5105911;28;20039;-65
2022/04/17 06:43:10;;;;;;;11.37;6.90;;;;;;;;;;5102986;28;20054;-65
2022/04/17 06:45:37;;;;;;;10.23;6.43;;;;;;;;;;5101227;28;20405;-66
2022/04/17 06:48:22;;;;;;;11.20;7.10;;;;;;;;;;5102013;28;20117;-66
2022/04/17 06:50:49;;;;;;;11.63;6.67;;;;;;;;;;5095566;28;20128;-65
2022/04/17 06:53:16;;;;;;;9.60;6.70;;;;;;;;;;5103248;28;20494;-65
2022/04/17 06:55:42;;;;;;;10.30;6.23;;;;;;;;;;5103520;28;20043;-65
2022/04/17 06:58:08;;;;;;;11.77;7.27;;;;;;;;;;5093893;28;20044;-65
2022/04/17 07:00:34;;;;;;;12.83;6.23;;;;;;;;;;5093451;28;20048;-65
2022/04/17 07:03:00;;;;;;;12.07;6.33;;;;;;;;;;5104139;28;20047;-65
2022/04/17 07:05:26;;;;;;;12.90;6.43;;;;;;;;;;5100390;28;20044;-65
2022/04/17 07:07:59;;;;;;;10.40;6.80;;;;;;;;;;5100783;28;20063;-65
2022/04/17 07:10:25;;;;;;;8.63;5.87;;;;;;;;;;5072778;28;20494;-65
2022/04/17 07:12:52;;;;;;;10.00;6.70;;;;;;;;;;5105084;28;20459;-65
2022/04/17 07:15:19;;;;;;;11.80;6.07;;;;;;;;;;5109267;28;20465;-65
2022/04/17 07:17:46;;;;;;;9.53;6.13;;;;;;;;;;5090824;28;20044;-65
2022/04/17 07:20:12;;;;;;;10.33;6.10;;;;;;;;;;5099026;28;20047;-65
2022/04/17 07:22:39;;;;;;;10.07;6.57;;;;;;;;;;5098972;28;20044;-66
2022/04/17 07:25:06;;;;;;;10.57;6.17;;;;;;;;;;5105105;28;20106;-65
2022/04/17 07:27:36;;;;;;;10.30;6.20;;;;;;;;;;5106500;28;20035;-65
2022/04/17 07:30:03;;;;;;;8.33;5.27;;;;;;;;;;5105801;28;20043;-65
2022/04/17 07:32:30;;;;;;;11.27;6.90;;;;;;;;;;5096299;28;20087;-65
2022/04/17 07:34:57;;;;;;;10.73;6.30;;;;;;;;;;5080254;28;20625;-65
2022/04/17 07:37:26;;;;;;;10.80;6.63;;;;;;;;;;5090812;28;20525;-65
2022/04/17 07:39:52;;;;;;;9.13;5.87;;;;;;;;;;5097922;28;20544;-65
2022/04/17 07:42:20;;;;;;;13.07;6.50;;;;;;;;;;5096776;28;20273;-64
2022/04/17 07:44:46;;;;;;;11.53;5.63;;;;;;;;;;5093360;28;20506;-65
2022/04/17 07:47:13;;;;;;;9.47;6.07;;;;;;;;;;5096703;28;20043;-65
2022/04/17 07:49:39;;;;;;;8.50;5.70;;;;;;;;;;5097891;28;20051;-65
2022/04/17 07:52:05;;;;;;;11.67;6.53;;;;;;;;;;5102178;28;20765;-65
2022/04/17 07:54:31;;;;;;;8.47;5.67;;;;;;;;;;5094918;28;20036;-65
2022/04/17 07:56:57;;;;;;;16.03;6.80;;;;;;;;;;5098732;28;20040;-65
2022/04/17 07:59:25;;;;;;;11.17;6.57;;;;;;;;;;5098027;28;20032;-65
2022/04/17 08:01:51;;;;;;;12.57;5.50;;;;;;;;;;5098893;28;20506;-65
2022/04/17 08:04:17;;;;;;;8.57;5.80;;;;;;;;;;5096573;28;20101;-65
2022/04/17 08:06:43;;;;;;;8.67;5.87;;;;;;;;;;5098380;28;20529;-65
2022/04/17 08:09:09;;;;;;;9.80;5.97;;;;;;;;;;5095219;28;20036;-65
2022/04/17 08:11:36;;;;;;;9.60;6.00;;;;;;;;;;5096798;28;20036;-65
2022/04/17 08:14:02;;;;;;;10.33;5.47;;;;;;;;;;5108956;28;20122;-65
2022/04/17 08:16:28;;;;;;;7.27;4.60;;;;;;;;;;5098612;28;20181;-65
2022/04/17 08:18:54;;;;;;;10.77;4.80;;;;;;;;;;5090462;28;20055;-65
2022/04/17 08:21:20;;;;;;;7.83;4.80;;;;;;;;;;5104472;28;20058;-65
2022/04/17 08:23:46;;;;;;;8.47;5.27;;;;;;;;;;5089938;28;20044;-65
2022/04/17 08:26:12;;;;;;;8.07;4.73;;;;;;;;;;5097090;28;20868;-64
2022/04/17 08:28:38;;;;;;;10.30;4.93;;;;;;;;;;5097473;28;20040;-65
2022/04/17 08:31:04;;;;;;;10.37;4.50;;;;;;;;;;5090875;28;20176;-65
2022/04/17 08:33:32;;;;;;;9.57;4.53;;;;;;;;;;5090253;28;20474;-64
2022/04/17 08:35:59;;;;;;;7.07;4.60;;;;;;;;;;5097321;28;20116;-65
2022/04/17 08:38:25;;;;;;;9.07;4.80;;;;;;;;;;5096884;28;20093;-65
2022/04/17 08:40:51;;;;;;;8.43;5.03;;;;;;;;;;5074994;28;20533;-65
2022/04/17 08:43:22;;;;;;;6.93;4.63;;;;;;;;;;5107895;28;20040;-65
2022/04/17 08:45:50;;;;;;;6.70;4.50;;;;;;;;;;5102653;28;20067;-65
2022/04/17 08:48:17;;;;;;;7.80;5.20;;;;;;;;;;5088229;28;20057;-64
2022/04/17 08:50:43;;;;;;;5.67;4.33;;;;;;;;;;5090866;28;20944;-64
2022/04/17 08:53:10;;;;;;;7.97;5.10;;;;;;;;;;5079567;28;20051;-64
2022/04/17 08:55:36;;;;;;;6.80;4.60;;;;;;;;;;5097339;28;20448;-64
2022/04/17 08:58:02;;;;;;;7.63;4.30;;;;;;;;;;5094988;28;20062;-64
2022/04/17 09:00:28;;;;;;;8.03;4.80;;;;;;;;;;5090883;28;20497;-64
2022/04/17 09:02:54;;;;;;;10.50;4.67;;;;;;;;;;5100602;28;20406;-64
2022/04/17 09:05:20;;;;;;;8.20;4.60;;;;;;;;;;5107809;28;20189;-64
2022/04/17 09:07:49;;;;;;;6.93;4.90;;;;;;;;;;5100799;28;20095;-64
2022/04/17 09:10:25;;;;;;;6.43;4.33;;;;;;;;;;5100482;28;20155;-64
2022/04/17 09:12:53;;;;;;;8.47;4.67;;;;;;;;;;5098162;28;20076;-64
2022/04/17 09:15:22;;;;;;;7.57;3.73;;;;;;;;;;5094551;28;20490;-65
2022/04/17 09:17:49;;;;;;;7.00;4.10;;;;;;;;;;5092098;28;20051;-64
2022/04/17 09:20:19;;;;;;;5.53;3.80;;;;;;;;;;5100836;28;20039;-65
2022/04/17 09:22:49;;;;;;;10.07;4.30;;;;;;;;;;5099058;28;20050;-65
2022/04/17 09:25:15;;;;;;;6.93;3.60;;;;;;;;;;5093620;28;20041;-65
2022/04/17 09:27:54;;;;;;;5.37;3.50;;;;;;;;;;5091324;28;20260;-65
2022/04/17 09:30:26;;;;;;;5.70;3.77;;;;;;;;;;5100819;28;20414;-65
2022/04/17 09:32:53;;;;;;;5.57;3.40;;;;;;;;;;5103676;28;20125;-65
2022/04/17 09:35:22;;;;;;;4.70;3.37;;;;;;;;;;5095923;28;20043;-65
2022/04/17 09:37:48;;;;;;;6.37;4.20;;;;;;;;;;5098238;28;20209;-65
2022/04/17 09:40:18;;;;;;;7.63;5.50;;;;;;;;;;5099577;28;20489;-65
2022/04/17 09:42:47;;;;;;;7.97;5.07;;;;;;;;;;5089647;28;20043;-64
2022/04/17 09:45:13;;;;;;;4.70;3.40;;;;;;;;;;5088208;28;20050;-65
2022/04/17 09:47:39;;;;;;;5.40;3.63;;;;;;;;;;5102831;28;20048;-65
2022/04/17 09:50:08;;;;;;;7.47;3.90;;;;;;;;;;5097563;28;20051;-66
2022/04/17 09:52:39;;;;;;;6.53;4.20;;;;;;;;;;5087256;28;20055;-65
2022/04/17 09:55:06;;;;;;;6.03;3.70;;;;;;;;;;5089179;28;20040;-65
2022/04/17 09:57:33;;;;;;;6.63;3.80;;;;;;;;;;5096578;28;20036;-65
2022/04/17 10:00:21;;;;;;;10.10;3.77;;;;;;;;;;5087579;28;20119;-65
2022/04/17 10:02:47;;;;;;;6.83;3.50;;;;;;;;;;5099155;28;20069;-65
2022/04/17 10:05:17;;;;;;;5.50;3.93;;;;;;;;;;5108503;28;20044;-65
2022/04/17 10:07:48;;;;;;;5.93;3.80;;;;;;;;;;5108054;28;20162;-65
2022/04/17 10:10:15;;;;;;;7.13;4.00;;;;;;;;;;5108921;28;20043;-65
2022/04/17 10:12:47;;;;;;;4.47;3.70;;;;;;;;;;5108989;28;20130;-65
2022/04/17 10:15:14;;;;;;;5.07;4.03;;;;;;;;;;5108763;28;20040;-65
2022/04/17 10:17:42;;;;;;;7.27;3.50;;;;;;;;;;5090829;28;20081;-65
2022/04/17 10:20:12;;;;;;;5.83;3.60;;;;;;;;;;5088409;28;20550;-65
2022/04/17 10:22:39;;;;;;;6.43;3.57;;;;;;;;;;5088142;28;20431;-65
2022/04/17 10:25:07;;;;;;;5.43;3.80;;;;;;;;;;5088263;28;20048;-65
2022/04/17 10:27:37;;;;;;;5.53;3.30;;;;;;;;;;5088113;28;20051;-65
2022/04/17 10:30:06;;;;;;;5.63;4.00;;;;;;;;;;5088175;28;20093;-65
2022/04/17 10:32:36;;;;;;;7.57;3.97;;;;;;;;;;5107300;28;20044;-65
2022/04/17 10:35:26;;;;;;;6.63;3.50;;;;;;;;;;5108618;28;20169;-65
2022/04/17 10:37:52;;;;;;;6.17;3.50;;;;;;;;;;5108395;28;20689;-65
2022/04/17 10:40:18;;;;;;;8.83;3.63;;;;;;;;;;5108851;28;20087;-65
2022/04/17 10:42:55;;;;;;;5.50;3.40;;;;;;;;;;5108397;28;20112;-65
2022/04/17 10:45:22;;;;;;;4.47;3.10;;;;;;;;;;5108519;28;20110;-65
2022/04/17 10:48:08;;;;;;;7.93;3.37;;;;;;;;;;5108619;28;20040;-65
2022/04/17 10:50:49;;;;;;;4.87;3.20;;;;;;;;;;5099801;28;20050;-65
2022/04/17 10:53:28;;;;;;;4.73;3.40;;;;;;;;;;5088365;28;20450;-65
2022/04/17 10:56:03;;;;;;;5.20;3.43;;;;;;;;;;5087913;28;20131;-66
2022/04/17 10:58:40;;;;;;;6.00;3.57;;;;;;;;;;5087935;28;20047;-65
2022/04/17 11:01:06;;;;;;;4.87;3.47;;;;;;;;;;5087899;28;20051;-65
2022/04/17 11:03:36;;;;;;;4.50;3.37;;;;;;;;;;5093719;28;20044;-66
2022/04/17 11:06:20;;;;;;;5.60;3.70;;;;;;;;;;5087506;28;20048;-66
2022/04/17 11:08:52;;;;;;;7.40;3.80;;;;;;;;;;5088301;28;20044;-66
2022/04/17 11:11:18;;;;;;;6.20;3.00;;;;;;;;;;5088182;28;20054;-65
2022/04/17 11:14:02;;;;;;;6.13;3.40;;;;;;;;;;5087833;28;20047;-66
2022/04/17 11:16:28;;;;;;;5.77;3.47;;;;;;;;;;5087783;28;20101;-65
2022/04/17 11:18:56;;;;;;;6.10;3.87;;;;;;;;;;5088020;28;20044;-65
2022/04/17 11:21:36;;;;;;;4.47;3.33;;;;;;;;;;5087670;28;20498;-65
2022/04/17 11:24:02;;;;;;;6.10;3.40;;;;;;;;;;5087674;28;20448;-65
2022/04/17 11:26:47;;;;;;;5.80;3.60;;;;;;;;;;5089366;28;20086;-65
2022/04/17 11:29:13;;;;;;;5.25;3.58;;;;;;;;;;5091855;28;20486;-65
2022/04/17 11:31:39;;;;;;;5.17;3.07;;;;;;;;;;5091382;28;20498;-65
2022/04/17 11:34:05;;;;;;;7.28;3.95;;;;;;;;;;5091633;28;20093;-65
2022/04/17 11:36:31;;;;;;;5.25;3.40;;;;;;;;;;5091401;28;20131;-65
2022/04/17 11:38:57;;;;;;;4.15;3.25;;;;;;;;;;5073066;28;20040;-65
2022/04/17 11:41:24;;;;;;;6.15;3.42;;;;;;;;;;5091434;28;20048;-65
2022/04/17 11:43:59;;;;;;;3.78;2.95;;;;;;;;;;5102337;28;20124;-65
2022/04/17 11:46:25;;;;;;;4.90;3.55;;;;;;;;;;5081083;28;20056;-65
2022/04/17 11:48:54;;;;;;;5.00;3.42;;;;;;;;;;5091234;28;20054;-65
2022/04/17 11:51:20;;;;;;;5.35;4.03;;;;;;;;;;5091175;28;20140;-65
2022/04/17 11:53:46;;;;;;;6.25;3.78;;;;;;;;;;5091495;28;20036;-65
2022/04/17 11:56:12;;;;;;;6.35;3.90;;;;;;;;;;5091223;28;20403;-65
2022/04/17 11:58:38;;;;;;;5.25;4.00;;;;;;;;;;5091283;28;20044;-65
2022/04/17 12:01:06;;;;;;;6.20;4.13;;;;;;;;;;5090831;28;20036;-65
2022/04/17 12:03:58;;;;;;;7.65;4.70;;;;;;;;;;5091021;28;20055;-65
2022/04/17 12:06:27;;;;;;;5.57;4.10;;;;;;;;;;5087274;28;20116;-65
2022/04/17 12:08:53;;;;;;;6.30;3.50;;;;;;;;;;5091228;28;20113;-65
2022/04/17 12:11:19;;;;;;;4.30;3.42;;;;;;;;;;5090604;28;20501;-65
2022/04/17 12:13:53;;;;;;;4.82;3.53;;;;;;;;;;5090817;28;20044;-65
2022/04/17 12:16:19;;;;;;;5.78;3.55;;;;;;;;;;5090269;28;20076;-65
2022/04/17 12:18:53;;;;;;;9.30;3.35;;;;;;;;;;5090561;28;20137;-65
2022/04/17 12:21:27;;;;;;;4.47;3.20;;;;;;;;;;5090590;28;20044;-65
2022/04/17 12:23:56;;;;;;;5.53;3.33;;;;;;;;;;5090572;28;20051;-65
2022/04/17 12:26:23;;;;;;;4.63;3.50;;;;;;;;;;5090249;28;20040;-65
2022/04/17 12:28:50;;;;;;;5.75;4.03;;;;;;;;;;5090065;28;20614;-65
2022/04/17 12:31:16;;;;;;;4.32;3.00;;;;;;;;;;5090340;28;20094;-65
2022/04/17 12:33:42;;;;;;;4.43;2.65;;;;;;;;;;5090206;28;20406;-65
2022/04/17 12:36:09;;;;;;;5.07;3.00;;;;;;;;;;5090016;28;20051;-65
2022/04/17 12:38:40;;;;;;;4.97;2.33;;;;;;;;;;5088996;28;20088;-65
2022/04/17 12:41:19;;;;;;;5.65;3.47;;;;;;;;;;5089737;28;20066;-65
2022/04/17 12:43:47;;;;;;;3.85;3.13;;;;;;;;;;5090187;28;20185;-65
2022/04/17 12:46:22;;;;;;;4.57;3.00;;;;;;;;;;5090373;28;20044;-65
2022/04/17 12:49:00;;;;;;;5.03;3.40;;;;;;;;;;5090063;28;20043;-65
2022/04/17 12:51:26;;;;;;;5.82;3.17;;;;;;;;;;5089655;28;20192;-65
2022/04/17 12:53:52;;;;;;;3.97;3.10;;;;;;;;;;5089890;28;20056;-65
2022/04/17 12:56:20;;;;;;;4.53;3.50;;;;;;;;;;5090017;28;20056;-65
2022/04/17 12:58:51;;;;;;;5.28;3.63;;;;;;;;;;5090318;28;20379;-65
2022/04/17 13:01:27;;;;;;;4.03;3.03;;;;;;;;;;5089842;28;20066;-65
2022/04/17 13:04:06;;;;;;;4.70;3.20;;;;;;;;;;5089555;28;20521;-65
2022/04/17 13:06:32;;;;;;;5.07;3.60;;;;;;;;;;5089332;28;20498;-65
2022/04/17 13:09:04;;;;;;;6.05;2.95;;;;;;;;;;5090031;28;20055;-65
2022/04/17 13:11:33;;;;;;;4.15;3.15;;;;;;;;;;5089243;28;20048;-65
2022/04/17 13:14:02;;;;;;;6.78;2.83;;;;;;;;;;5089580;28;20055;-65
2022/04/17 13:16:28;;;;;;;3.78;2.67;;;;;;;;;;5089411;28;20723;-65
2022/04/17 13:18:54;;;;;;;4.47;3.08;;;;;;;;;;5089764;28;20051;-65
2022/04/17 13:21:20;;;;;;;4.85;3.28;;;;;;;;;;5109079;28;20052;-65
2022/04/17 13:23:47;;;;;;;7.28;3.15;;;;;;;;;;5109728;28;20044;-65
2022/04/17 13:26:13;;;;;;;3.50;2.80;;;;;;;;;;5109176;28;20043;-65
2022/04/17 13:28:42;;;;;;;3.50;2.83;;;;;;;;;;5109792;28;20040;-65
2022/04/17 13:31:08;;;;;;;4.47;3.13;;;;;;;;;;5096933;28;20073;-65
2022/04/17 13:33:34;;;;;;;4.70;3.00;;;;;;;;;;5089106;28;20151;-65
2022/04/17 13:36:00;;;;;;;6.13;3.33;;;;;;;;;;5089085;28;20048;-65
2022/04/17 13:38:27;;;;;;;4.88;3.00;;;;;;;;;;5089031;28;20399;-65
2022/04/17 13:40:54;;;;;;;7.00;3.35;;;;;;;;;;5088716;28;20051;-65
2022/04/17 13:43:24;;;;;;;5.25;2.83;;;;;;;;;;5089038;28;20059;-65
2022/04/17 13:45:50;;;;;;;4.78;3.20;;;;;;;;;;5108183;28;20070;-65
2022/04/17 13:48:16;;;;;;;4.32;2.80;;;;;;;;;;5108984;28;20051;-65
2022/04/17 13:50:42;;;;;;;5.70;3.58;;;;;;;;;;5109317;28;20120;-65
2022/04/17 13:53:08;;;;;;;4.72;3.35;;;;;;;;;;5107022;28;20044;-65
2022/04/17 13:55:35;;;;;;;5.32;2.80;;;;;;;;;;5108595;28;20477;-65
2022/04/17 13:58:01;;;;;;;4.20;3.03;;;;;;;;;;5109324;28;20517;-65
2022/04/17 14:00:27;;;;;;;5.07;3.83;;;;;;;;;;5109052;28;20047;-65
2022/04/17 14:02:53;;;;;;;4.68;3.13;;;;;;;;;;5108899;28;20078;-65
2022/04/17 14:05:19;;;;;;;5.00;3.28;;;;;;;;;;5109340;28;20952;-65
2022/04/17 14:07:46;;;;;;;4.18;3.35;;;;;;;;;;5097375;28;20087;-65
2022/04/17 14:10:12;;;;;;;4.55;3.50;;;;;;;;;;5088777;28;20073;-65
2022/04/17 14:12:39;;;;;;;4.40;3.75;;;;;;;;;;5088588;28;20040;-65
2022/04/17 14:15:05;;;;;;;4.65;3.20;;;;;;;;;;5088479;28;20036;-65
2022/04/17 14:17:31;;;;;;;6.40;3.60;;;;;;;;;;5088523;28;20040;-65
2022/04/17 14:19:58;;;;;;;4.03;3.28;;;;;;;;;;5088516;28;20117;-65
2022/04/17 14:22:24;;;;;;;4.90;3.35;;;;;;;;;;5087968;28;20087;-65
2022/04/17 14:24:53;;;;;;;4.70;3.30;;;;;;;;;;5088669;28;20055;-65
2022/04/17 14:27:20;;;;;;;4.80;3.30;;;;;;;;;;5088431;28;20052;-65
2022/04/17 14:29:47;;;;;;;4.82;3.80;;;;;;;;;;5088529;28;20040;-65
2022/04/17 14:32:13;;;;;;;7.05;3.55;;;;;;;;;;5087997;28;20044;-65
2022/04/17 14:34:39;;;;;;;6.28;3.25;;;;;;;;;;5088503;28;20537;-65
2022/04/17 14:37:05;;;;;;;5.00;3.75;;;;;;;;;;5088215;28;20441;-65
2022/04/17 14:39:32;;;;;;;5.03;3.05;;;;;;;;;;5087978;28;20112;-63
2022/04/17 14:41:58;;;;;;;5.95;3.70;;;;;;;;;;5088185;28;20051;-63
2022/04/17 14:44:24;;;;;;;5.20;4.10;;;;;;;;;;5088393;28;20189;-63
2022/04/17 14:46:50;;;;;;;4.45;3.70;;;;;;;;;;5088145;28;20049;-63
2022/04/17 14:49:16;;;;;;;4.20;3.45;;;;;;;;;;5088165;28;20044;-63
2022/04/17 14:51:42;;;;;;;5.75;3.67;;;;;;;;;;5088009;28;20524;-63
2022/04/17 14:54:10;;;;;;;5.43;3.63;;;;;;;;;;5087998;28;20047;-63
2022/04/17 14:56:37;;;;;;;6.05;3.40;;;;;;;;;;5102971;28;20459;-63
2022/04/17 14:59:03;;;;;;;4.60;3.38;;;;;;;;;;5108493;28;20680;-63